sensor_id;sensor_type;location;lat;lon;timestamp;P1;durP1;ratioP1;P2;durP2;ratioP2
68457;SDS011;65384;52.016;5.428;2022-12-16T00:00:03;56.72;;;21.48;;
68457;SDS011;65384;52.016;5.428;2022-12-16T00:02:30;54.03;;;21.15;;
68457;SDS011;65384;52.016;5.428;2022-12-16T00:04:55;48.38;;;20.63;;
68457;SDS011;65384;52.016;5.428;2022-12-16T00:07:21;55.03;;;21.67;;
68457;SDS011;65384;52.016;5.428;2022-12-16T00:09:47;55.72;;;21.88;;
68457;SDS011;65384;52.016;5.428;2022-12-16T00:12:13;52.50;;;21.60;;
68457;SDS011;65384;52.016;5.428;2022-12-16T00:14:38;56.35;;;22.73;;
68457;SDS011;65384;52.016;5.428;2022-12-16T00:17:03;52.75;;;21.00;;
68457;SDS011;65384;52.016;5.428;2022-12-16T00:19:28;55.65;;;22.13;;
68457;SDS011;65384;52.016;5.428;2022-12-16T00:21:55;54.42;;;22.52;;
68457;SDS011;65384;52.016;5.428;2022-12-16T00:24:21;56.53;;;22.75;;
68457;SDS011;65384;52.016;5.428;2022-12-16T00:26:46;59.60;;;22.85;;
68457;SDS011;65384;52.016;5.428;2022-12-16T00:29:11;56.20;;;21.52;;
68457;SDS011;65384;52.016;5.428;2022-12-16T00:31:38;54.97;;;21.65;;
68457;SDS011;65384;52.016;5.428;2022-12-16T00:34:03;60.70;;;22.60;;
68457;SDS011;65384;52.016;5.428;2022-12-16T00:36:29;56.10;;;22.40;;
68457;SDS011;65384;52.016;5.428;2022-12-16T00:38:54;57.65;;;24.50;;
68457;SDS011;65384;52.016;5.428;2022-12-16T00:41:20;52.60;;;21.95;;
68457;SDS011;65384;52.016;5.428;2022-12-16T00:43:45;57.35;;;22.77;;
68457;SDS011;65384;52.016;5.428;2022-12-16T00:46:11;55.05;;;21.63;;
68457;SDS011;65384;52.016;5.428;2022-12-16T00:48:36;53.20;;;21.92;;
68457;SDS011;65384;52.016;5.428;2022-12-16T00:51:02;57.10;;;22.33;;
68457;SDS011;65384;52.016;5.428;2022-12-16T00:53:27;55.47;;;22.75;;
68457;SDS011;65384;52.016;5.428;2022-12-16T00:56:03;54.90;;;21.50;;
68457;SDS011;65384;52.016;5.428;2022-12-16T00:58:29;52.80;;;21.50;;
68457;SDS011;65384;52.016;5.428;2022-12-16T01:00:54;54.65;;;21.52;;
68457;SDS011;65384;52.016;5.428;2022-12-16T01:03:20;53.28;;;22.15;;
68457;SDS011;65384;52.016;5.428;2022-12-16T01:05:45;52.60;;;21.83;;
68457;SDS011;65384;52.016;5.428;2022-12-16T01:08:10;57.13;;;22.25;;
68457;SDS011;65384;52.016;5.428;2022-12-16T01:10:36;58.25;;;23.45;;
68457;SDS011;65384;52.016;5.428;2022-12-16T01:13:01;58.92;;;22.08;;
68457;SDS011;65384;52.016;5.428;2022-12-16T01:15:27;56.90;;;21.80;;
68457;SDS011;65384;52.016;5.428;2022-12-16T01:17:52;55.10;;;22.05;;
68457;SDS011;65384;52.016;5.428;2022-12-16T01:20:17;58.65;;;22.05;;
68457;SDS011;65384;52.016;5.428;2022-12-16T01:22:43;56.10;;;22.98;;
68457;SDS011;65384;52.016;5.428;2022-12-16T01:25:09;58.10;;;23.83;;
68457;SDS011;65384;52.016;5.428;2022-12-16T01:27:36;54.65;;;22.13;;
68457;SDS011;65384;52.016;5.428;2022-12-16T01:30:02;59.58;;;24.48;;
68457;SDS011;65384;52.016;5.428;2022-12-16T01:32:27;55.45;;;22.92;;
68457;SDS011;65384;52.016;5.428;2022-12-16T01:34:53;53.70;;;22.27;;
68457;SDS011;65384;52.016;5.428;2022-12-16T01:37:19;51.75;;;21.98;;
68457;SDS011;65384;52.016;5.428;2022-12-16T01:39:44;57.25;;;22.58;;
68457;SDS011;65384;52.016;5.428;2022-12-16T01:42:11;57.80;;;23.17;;
68457;SDS011;65384;52.016;5.428;2022-12-16T01:44:37;55.45;;;22.90;;
68457;SDS011;65384;52.016;5.428;2022-12-16T01:47:03;58.38;;;22.77;;
68457;SDS011;65384;52.016;5.428;2022-12-16T01:49:33;56.58;;;22.75;;
68457;SDS011;65384;52.016;5.428;2022-12-16T01:52:06;57.42;;;22.10;;
68457;SDS011;65384;52.016;5.428;2022-12-16T01:54:35;56.70;;;23.45;;
68457;SDS011;65384;52.016;5.428;2022-12-16T01:57:05;57.53;;;23.15;;
68457;SDS011;65384;52.016;5.428;2022-12-16T01:59:32;56.83;;;22.80;;
68457;SDS011;65384;52.016;5.428;2022-12-16T02:02:00;53.88;;;22.13;;
68457;SDS011;65384;52.016;5.428;2022-12-16T02:04:27;59.58;;;23.23;;
68457;SDS011;65384;52.016;5.428;2022-12-16T02:06:52;55.83;;;23.45;;
68457;SDS011;65384;52.016;5.428;2022-12-16T02:09:18;53.25;;;22.58;;
68457;SDS011;65384;52.016;5.428;2022-12-16T02:17:19;54.97;;;21.98;;
68457;SDS011;65384;52.016;5.428;2022-12-16T02:25:13;53.35;;;21.30;;
68457;SDS011;65384;52.016;5.428;2022-12-16T02:36:10;55.85;;;22.00;;
68457;SDS011;65384;52.016;5.428;2022-12-16T02:41:06;55.83;;;22.58;;
68457;SDS011;65384;52.016;5.428;2022-12-16T02:46:07;55.33;;;22.25;;
68457;SDS011;65384;52.016;5.428;2022-12-16T02:48:32;51.97;;;22.42;;
68457;SDS011;65384;52.016;5.428;2022-12-16T02:50:58;52.72;;;22.83;;
68457;SDS011;65384;52.016;5.428;2022-12-16T02:53:24;57.08;;;23.50;;
68457;SDS011;65384;52.016;5.428;2022-12-16T03:01:10;53.08;;;21.27;;
68457;SDS011;65384;52.016;5.428;2022-12-16T03:03:48;55.17;;;22.67;;
68457;SDS011;65384;52.016;5.428;2022-12-16T03:06:19;51.25;;;21.55;;
68457;SDS011;65384;52.016;5.428;2022-12-16T03:08:47;54.53;;;22.05;;
68457;SDS011;65384;52.016;5.428;2022-12-16T03:11:15;56.13;;;22.35;;
68457;SDS011;65384;52.016;5.428;2022-12-16T03:13:42;55.42;;;22.10;;
68457;SDS011;65384;52.016;5.428;2022-12-16T03:16:10;53.80;;;22.58;;
68457;SDS011;65384;52.016;5.428;2022-12-16T03:18:39;52.95;;;21.48;;
68457;SDS011;65384;52.016;5.428;2022-12-16T03:21:07;55.38;;;22.40;;
68457;SDS011;65384;52.016;5.428;2022-12-16T03:23:43;50.03;;;21.63;;
68457;SDS011;65384;52.016;5.428;2022-12-16T03:26:16;56.50;;;22.67;;
68457;SDS011;65384;52.016;5.428;2022-12-16T03:28:51;55.17;;;22.35;;
68457;SDS011;65384;52.016;5.428;2022-12-16T03:31:29;55.20;;;22.95;;
68457;SDS011;65384;52.016;5.428;2022-12-16T03:36:49;49.92;;;19.70;;
68457;SDS011;65384;52.016;5.428;2022-12-16T03:39:16;55.00;;;20.38;;
68457;SDS011;65384;52.016;5.428;2022-12-16T03:41:43;52.65;;;19.30;;
68457;SDS011;65384;52.016;5.428;2022-12-16T03:44:08;52.85;;;21.08;;
68457;SDS011;65384;52.016;5.428;2022-12-16T03:46:35;50.97;;;20.05;;
68457;SDS011;65384;52.016;5.428;2022-12-16T03:49:03;48.63;;;19.67;;
68457;SDS011;65384;52.016;5.428;2022-12-16T03:51:28;51.28;;;20.23;;
68457;SDS011;65384;52.016;5.428;2022-12-16T03:53:54;49.08;;;20.27;;
68457;SDS011;65384;52.016;5.428;2022-12-16T03:56:19;49.45;;;19.85;;
68457;SDS011;65384;52.016;5.428;2022-12-16T03:58:45;51.58;;;19.23;;
68457;SDS011;65384;52.016;5.428;2022-12-16T04:01:11;47.45;;;19.80;;
68457;SDS011;65384;52.016;5.428;2022-12-16T04:03:36;51.85;;;17.90;;
68457;SDS011;65384;52.016;5.428;2022-12-16T04:06:02;49.00;;;19.25;;
68457;SDS011;65384;52.016;5.428;2022-12-16T04:08:28;48.03;;;18.88;;
68457;SDS011;65384;52.016;5.428;2022-12-16T04:10:53;48.42;;;19.15;;
68457;SDS011;65384;52.016;5.428;2022-12-16T04:13:37;49.30;;;19.02;;
68457;SDS011;65384;52.016;5.428;2022-12-16T04:16:21;44.95;;;17.67;;
68457;SDS011;65384;52.016;5.428;2022-12-16T04:19:05;43.65;;;18.45;;
68457;SDS011;65384;52.016;5.428;2022-12-16T04:21:51;45.47;;;17.77;;
68457;SDS011;65384;52.016;5.428;2022-12-16T04:24:49;43.70;;;17.13;;
68457;SDS011;65384;52.016;5.428;2022-12-16T04:27:14;47.17;;;17.58;;
68457;SDS011;65384;52.016;5.428;2022-12-16T04:29:48;41.92;;;16.92;;
68457;SDS011;65384;52.016;5.428;2022-12-16T04:32:32;39.60;;;16.20;;
68457;SDS011;65384;52.016;5.428;2022-12-16T04:35:16;45.22;;;16.95;;
68457;SDS011;65384;52.016;5.428;2022-12-16T04:38:00;40.78;;;16.58;;
68457;SDS011;65384;52.016;5.428;2022-12-16T04:40:44;43.90;;;16.35;;
68457;SDS011;65384;52.016;5.428;2022-12-16T04:43:28;44.47;;;16.83;;
68457;SDS011;65384;52.016;5.428;2022-12-16T04:46:12;43.17;;;16.77;;
68457;SDS011;65384;52.016;5.428;2022-12-16T04:48:56;40.35;;;16.33;;
68457;SDS011;65384;52.016;5.428;2022-12-16T04:51:40;42.33;;;16.10;;
68457;SDS011;65384;52.016;5.428;2022-12-16T04:54:24;43.08;;;17.30;;
68457;SDS011;65384;52.016;5.428;2022-12-16T04:57:08;38.65;;;15.95;;
68457;SDS011;65384;52.016;5.428;2022-12-16T04:59:52;36.60;;;16.02;;
68457;SDS011;65384;52.016;5.428;2022-12-16T05:02:36;40.38;;;16.48;;
68457;SDS011;65384;52.016;5.428;2022-12-16T05:05:20;42.53;;;17.05;;
68457;SDS011;65384;52.016;5.428;2022-12-16T05:08:04;46.63;;;17.33;;
68457;SDS011;65384;52.016;5.428;2022-12-16T05:10:48;42.40;;;17.05;;
68457;SDS011;65384;52.016;5.428;2022-12-16T05:13:32;41.88;;;16.35;;
68457;SDS011;65384;52.016;5.428;2022-12-16T05:16:16;45.47;;;17.35;;
68457;SDS011;65384;52.016;5.428;2022-12-16T05:19:07;41.60;;;17.00;;
68457;SDS011;65384;52.016;5.428;2022-12-16T05:21:51;43.15;;;17.40;;
68457;SDS011;65384;52.016;5.428;2022-12-16T05:24:35;41.08;;;16.52;;
68457;SDS011;65384;52.016;5.428;2022-12-16T05:27:19;43.58;;;17.38;;
68457;SDS011;65384;52.016;5.428;2022-12-16T05:30:03;39.38;;;15.23;;
68457;SDS011;65384;52.016;5.428;2022-12-16T05:32:50;41.60;;;16.10;;
68457;SDS011;65384;52.016;5.428;2022-12-16T05:35:33;42.25;;;15.63;;
68457;SDS011;65384;52.016;5.428;2022-12-16T05:38:17;39.25;;;15.73;;
68457;SDS011;65384;52.016;5.428;2022-12-16T05:41:01;40.10;;;16.13;;
68457;SDS011;65384;52.016;5.428;2022-12-16T05:43:45;41.92;;;16.17;;
68457;SDS011;65384;52.016;5.428;2022-12-16T05:46:29;40.03;;;15.73;;
68457;SDS011;65384;52.016;5.428;2022-12-16T05:49:13;40.03;;;15.60;;
68457;SDS011;65384;52.016;5.428;2022-12-16T05:51:58;41.83;;;16.25;;
68457;SDS011;65384;52.016;5.428;2022-12-16T05:54:42;40.30;;;15.55;;
68457;SDS011;65384;52.016;5.428;2022-12-16T05:57:26;43.40;;;16.35;;
68457;SDS011;65384;52.016;5.428;2022-12-16T06:00:10;37.42;;;14.82;;
68457;SDS011;65384;52.016;5.428;2022-12-16T06:02:55;41.53;;;15.55;;
68457;SDS011;65384;52.016;5.428;2022-12-16T06:05:39;40.92;;;15.32;;
68457;SDS011;65384;52.016;5.428;2022-12-16T06:08:23;38.75;;;16.15;;
68457;SDS011;65384;52.016;5.428;2022-12-16T06:11:07;39.63;;;15.68;;
68457;SDS011;65384;52.016;5.428;2022-12-16T06:14:02;37.38;;;14.75;;
68457;SDS011;65384;52.016;5.428;2022-12-16T06:16:46;38.85;;;15.20;;
68457;SDS011;65384;52.016;5.428;2022-12-16T06:19:29;39.75;;;15.27;;
68457;SDS011;65384;52.016;5.428;2022-12-16T06:22:13;39.25;;;14.48;;
68457;SDS011;65384;52.016;5.428;2022-12-16T06:24:57;39.42;;;14.43;;
68457;SDS011;65384;52.016;5.428;2022-12-16T06:27:41;38.28;;;14.05;;
68457;SDS011;65384;52.016;5.428;2022-12-16T06:30:25;36.42;;;13.95;;
68457;SDS011;65384;52.016;5.428;2022-12-16T06:33:09;37.97;;;14.40;;
68457;SDS011;65384;52.016;5.428;2022-12-16T06:35:53;36.78;;;14.20;;
68457;SDS011;65384;52.016;5.428;2022-12-16T06:38:37;33.15;;;13.80;;
68457;SDS011;65384;52.016;5.428;2022-12-16T06:41:21;35.95;;;13.00;;
68457;SDS011;65384;52.016;5.428;2022-12-16T06:44:05;38.85;;;14.98;;
68457;SDS011;65384;52.016;5.428;2022-12-16T06:46:49;36.20;;;13.20;;
68457;SDS011;65384;52.016;5.428;2022-12-16T06:49:32;36.33;;;12.88;;
68457;SDS011;65384;52.016;5.428;2022-12-16T06:52:16;35.58;;;13.55;;
68457;SDS011;65384;52.016;5.428;2022-12-16T06:55:00;35.53;;;14.10;;
68457;SDS011;65384;52.016;5.428;2022-12-16T06:57:45;32.15;;;12.55;;
68457;SDS011;65384;52.016;5.428;2022-12-16T07:00:29;30.52;;;12.73;;
68457;SDS011;65384;52.016;5.428;2022-12-16T07:03:13;30.50;;;11.98;;
68457;SDS011;65384;52.016;5.428;2022-12-16T07:05:57;27.33;;;10.77;;
68457;SDS011;65384;52.016;5.428;2022-12-16T07:08:41;33.80;;;11.50;;
68457;SDS011;65384;52.016;5.428;2022-12-16T07:11:25;29.40;;;10.57;;
68457;SDS011;65384;52.016;5.428;2022-12-16T07:14:09;29.95;;;10.23;;
68457;SDS011;65384;52.016;5.428;2022-12-16T07:16:53;24.77;;;9.75;;
68457;SDS011;65384;52.016;5.428;2022-12-16T07:19:37;28.20;;;10.50;;
68457;SDS011;65384;52.016;5.428;2022-12-16T07:22:21;29.05;;;11.32;;
68457;SDS011;65384;52.016;5.428;2022-12-16T07:25:05;27.17;;;10.15;;
68457;SDS011;65384;52.016;5.428;2022-12-16T07:27:49;27.77;;;11.07;;
68457;SDS011;65384;52.016;5.428;2022-12-16T07:30:33;28.98;;;10.68;;
68457;SDS011;65384;52.016;5.428;2022-12-16T07:33:17;27.05;;;10.75;;
68457;SDS011;65384;52.016;5.428;2022-12-16T07:36:01;23.85;;;9.90;;
68457;SDS011;65384;52.016;5.428;2022-12-16T07:38:45;30.05;;;11.13;;
68457;SDS011;65384;52.016;5.428;2022-12-16T07:41:29;26.98;;;10.13;;
68457;SDS011;65384;52.016;5.428;2022-12-16T07:44:13;28.90;;;9.93;;
68457;SDS011;65384;52.016;5.428;2022-12-16T07:46:56;23.48;;;10.32;;
68457;SDS011;65384;52.016;5.428;2022-12-16T07:49:40;26.10;;;10.20;;
68457;SDS011;65384;52.016;5.428;2022-12-16T07:52:24;25.08;;;10.02;;
68457;SDS011;65384;52.016;5.428;2022-12-16T07:55:08;26.70;;;9.85;;
68457;SDS011;65384;52.016;5.428;2022-12-16T07:57:52;22.30;;;9.70;;
68457;SDS011;65384;52.016;5.428;2022-12-16T08:00:36;23.35;;;9.23;;
68457;SDS011;65384;52.016;5.428;2022-12-16T08:03:20;30.65;;;9.65;;
68457;SDS011;65384;52.016;5.428;2022-12-16T08:06:04;22.10;;;9.02;;
68457;SDS011;65384;52.016;5.428;2022-12-16T08:08:48;27.45;;;9.32;;
68457;SDS011;65384;52.016;5.428;2022-12-16T08:11:32;23.83;;;9.45;;
68457;SDS011;65384;52.016;5.428;2022-12-16T08:14:16;21.92;;;9.05;;
68457;SDS011;65384;52.016;5.428;2022-12-16T08:17:00;25.10;;;8.85;;
68457;SDS011;65384;52.016;5.428;2022-12-16T08:19:44;18.52;;;8.07;;
68457;SDS011;65384;52.016;5.428;2022-12-16T08:22:28;21.60;;;7.93;;
68457;SDS011;65384;52.016;5.428;2022-12-16T08:25:12;21.15;;;8.07;;
68457;SDS011;65384;52.016;5.428;2022-12-16T08:27:56;19.70;;;7.90;;
68457;SDS011;65384;52.016;5.428;2022-12-16T08:30:40;18.10;;;7.57;;
68457;SDS011;65384;52.016;5.428;2022-12-16T08:33:24;17.67;;;6.85;;
68457;SDS011;65384;52.016;5.428;2022-12-16T08:36:08;18.17;;;7.30;;
68457;SDS011;65384;52.016;5.428;2022-12-16T08:38:52;21.50;;;7.53;;
68457;SDS011;65384;52.016;5.428;2022-12-16T08:41:36;20.27;;;7.65;;
68457;SDS011;65384;52.016;5.428;2022-12-16T08:44:20;19.00;;;7.03;;
68457;SDS011;65384;52.016;5.428;2022-12-16T08:47:04;16.63;;;6.72;;
68457;SDS011;65384;52.016;5.428;2022-12-16T08:49:48;19.73;;;7.95;;
68457;SDS011;65384;52.016;5.428;2022-12-16T08:52:31;20.85;;;9.82;;
68457;SDS011;65384;52.016;5.428;2022-12-16T08:55:15;25.27;;;10.38;;
68457;SDS011;65384;52.016;5.428;2022-12-16T08:57:59;22.67;;;9.63;;
68457;SDS011;65384;52.016;5.428;2022-12-16T09:01:03;41.05;;;17.13;;
68457;SDS011;65384;52.016;5.428;2022-12-16T09:03:47;23.33;;;10.32;;
68457;SDS011;65384;52.016;5.428;2022-12-16T09:06:31;21.13;;;8.43;;
68457;SDS011;65384;52.016;5.428;2022-12-16T09:09:15;19.83;;;7.95;;
68457;SDS011;65384;52.016;5.428;2022-12-16T09:11:58;18.90;;;7.65;;
68457;SDS011;65384;52.016;5.428;2022-12-16T09:14:42;19.00;;;7.20;;
68457;SDS011;65384;52.016;5.428;2022-12-16T09:17:26;19.67;;;7.18;;
68457;SDS011;65384;52.016;5.428;2022-12-16T09:20:10;17.42;;;7.43;;
68457;SDS011;65384;52.016;5.428;2022-12-16T09:22:54;18.90;;;6.80;;
68457;SDS011;65384;52.016;5.428;2022-12-16T09:25:38;19.17;;;6.45;;
68457;SDS011;65384;52.016;5.428;2022-12-16T09:28:22;13.13;;;6.20;;
68457;SDS011;65384;52.016;5.428;2022-12-16T09:31:06;14.25;;;6.10;;
68457;SDS011;65384;52.016;5.428;2022-12-16T09:33:50;13.75;;;6.45;;
68457;SDS011;65384;52.016;5.428;2022-12-16T09:36:34;11.93;;;5.72;;
68457;SDS011;65384;52.016;5.428;2022-12-16T09:39:18;12.75;;;6.18;;
68457;SDS011;65384;52.016;5.428;2022-12-16T09:42:05;17.88;;;6.43;;
68457;SDS011;65384;52.016;5.428;2022-12-16T09:50:36;13.38;;;5.82;;
68457;SDS011;65384;52.016;5.428;2022-12-16T09:53:22;13.77;;;5.25;;
68457;SDS011;65384;52.016;5.428;2022-12-16T09:56:12;11.35;;;5.10;;
68457;SDS011;65384;52.016;5.428;2022-12-16T09:59:00;13.23;;;5.25;;
68457;SDS011;65384;52.016;5.428;2022-12-16T10:01:45;13.25;;;5.43;;
68457;SDS011;65384;52.016;5.428;2022-12-16T10:04:29;9.50;;;4.35;;
68457;SDS011;65384;52.016;5.428;2022-12-16T10:07:16;10.98;;;4.82;;
68457;SDS011;65384;52.016;5.428;2022-12-16T10:10:22;11.82;;;4.50;;
68457;SDS011;65384;52.016;5.428;2022-12-16T10:13:22;11.63;;;4.05;;
68457;SDS011;65384;52.016;5.428;2022-12-16T10:22:51;7.93;;;4.28;;
68457;SDS011;65384;52.016;5.428;2022-12-16T10:25:42;7.78;;;4.00;;
68457;SDS011;65384;52.016;5.428;2022-12-16T10:31:24;9.68;;;4.18;;
68457;SDS011;65384;52.016;5.428;2022-12-16T10:34:18;7.60;;;3.90;;
68457;SDS011;65384;52.016;5.428;2022-12-16T10:37:04;7.07;;;3.60;;
68457;SDS011;65384;52.016;5.428;2022-12-16T10:39:55;9.68;;;4.10;;
68457;SDS011;65384;52.016;5.428;2022-12-16T10:42:46;8.40;;;3.97;;
68457;SDS011;65384;52.016;5.428;2022-12-16T10:45:43;9.50;;;4.10;;
68457;SDS011;65384;52.016;5.428;2022-12-16T10:48:29;8.50;;;3.90;;
68457;SDS011;65384;52.016;5.428;2022-12-16T10:51:15;11.45;;;4.10;;
68457;SDS011;65384;52.016;5.428;2022-12-16T11:03:32;11.88;;;4.00;;
68457;SDS011;65384;52.016;5.428;2022-12-16T11:06:25;9.00;;;3.75;;
68457;SDS011;65384;52.016;5.428;2022-12-16T11:09:29;11.48;;;4.50;;
68457;SDS011;65384;52.016;5.428;2022-12-16T11:14:58;10.23;;;5.25;;
68457;SDS011;65384;52.016;5.428;2022-12-16T11:17:59;12.73;;;5.65;;
68457;SDS011;65384;52.016;5.428;2022-12-16T11:20:45;12.13;;;6.10;;
68457;SDS011;65384;52.016;5.428;2022-12-16T11:23:53;14.75;;;5.90;;
68457;SDS011;65384;52.016;5.428;2022-12-16T11:26:52;12.60;;;6.80;;
68457;SDS011;65384;52.016;5.428;2022-12-16T11:29:49;14.73;;;6.55;;
68457;SDS011;65384;52.016;5.428;2022-12-16T11:32:37;15.13;;;6.82;;
68457;SDS011;65384;52.016;5.428;2022-12-16T11:35:26;16.02;;;7.07;;
68457;SDS011;65384;52.016;5.428;2022-12-16T11:38:17;19.27;;;7.90;;
68457;SDS011;65384;52.016;5.428;2022-12-16T11:41:27;22.35;;;8.70;;
68457;SDS011;65384;52.016;5.428;2022-12-16T11:44:20;19.63;;;8.20;;
68457;SDS011;65384;52.016;5.428;2022-12-16T11:47:11;21.73;;;9.45;;
68457;SDS011;65384;52.016;5.428;2022-12-16T11:50:15;21.33;;;9.88;;
68457;SDS011;65384;52.016;5.428;2022-12-16T11:53:01;22.08;;;9.80;;
68457;SDS011;65384;52.016;5.428;2022-12-16T11:55:49;22.70;;;9.90;;
68457;SDS011;65384;52.016;5.428;2022-12-16T11:58:47;23.20;;;10.20;;
68457;SDS011;65384;52.016;5.428;2022-12-16T12:04:21;24.40;;;9.88;;
68457;SDS011;65384;52.016;5.428;2022-12-16T12:22:35;24.42;;;10.20;;
68457;SDS011;65384;52.016;5.428;2022-12-16T12:35:16;23.15;;;10.23;;
68457;SDS011;65384;52.016;5.428;2022-12-16T12:47:15;19.77;;;9.43;;
68457;SDS011;65384;52.016;5.428;2022-12-16T12:56:50;25.80;;;10.30;;
68457;SDS011;65384;52.016;5.428;2022-12-16T12:59:45;24.40;;;10.10;;
68457;SDS011;65384;52.016;5.428;2022-12-16T13:02:38;25.45;;;10.77;;
68457;SDS011;65384;52.016;5.428;2022-12-16T13:05:38;24.33;;;10.27;;
68457;SDS011;65384;52.016;5.428;2022-12-16T13:11:24;23.80;;;10.10;;
68457;SDS011;65384;52.016;5.428;2022-12-16T13:17:29;21.80;;;9.60;;
68457;SDS011;65384;52.016;5.428;2022-12-16T13:20:47;25.60;;;10.90;;
68457;SDS011;65384;52.016;5.428;2022-12-16T13:23:33;24.38;;;10.82;;
68457;SDS011;65384;52.016;5.428;2022-12-16T13:26:22;24.95;;;10.75;;
68457;SDS011;65384;52.016;5.428;2022-12-16T13:37:59;25.85;;;10.77;;
68457;SDS011;65384;52.016;5.428;2022-12-16T13:43:53;27.60;;;11.40;;
68457;SDS011;65384;52.016;5.428;2022-12-16T13:46:59;28.52;;;11.02;;
68457;SDS011;65384;52.016;5.428;2022-12-16T13:55:19;29.30;;;12.13;;
68457;SDS011;65384;52.016;5.428;2022-12-16T13:58:10;30.27;;;12.77;;
68457;SDS011;65384;52.016;5.428;2022-12-16T14:01:02;28.58;;;12.13;;
68457;SDS011;65384;52.016;5.428;2022-12-16T14:03:49;32.05;;;13.05;;
68457;SDS011;65384;52.016;5.428;2022-12-16T14:06:34;27.50;;;12.10;;
68457;SDS011;65384;52.016;5.428;2022-12-16T14:09:35;28.45;;;11.82;;
68457;SDS011;65384;52.016;5.428;2022-12-16T14:15:34;32.20;;;12.55;;
68457;SDS011;65384;52.016;5.428;2022-12-16T14:18:27;30.92;;;12.73;;
68457;SDS011;65384;52.016;5.428;2022-12-16T14:21:22;28.88;;;13.10;;
68457;SDS011;65384;52.016;5.428;2022-12-16T14:24:16;34.45;;;12.82;;
68457;SDS011;65384;52.016;5.428;2022-12-16T14:27:12;30.15;;;12.88;;
68457;SDS011;65384;52.016;5.428;2022-12-16T14:29:58;31.73;;;13.05;;
68457;SDS011;65384;52.016;5.428;2022-12-16T14:32:42;31.50;;;13.38;;
68457;SDS011;65384;52.016;5.428;2022-12-16T14:35:26;30.65;;;12.63;;
68457;SDS011;65384;52.016;5.428;2022-12-16T14:41:04;28.65;;;12.60;;
68457;SDS011;65384;52.016;5.428;2022-12-16T14:43:48;29.40;;;12.75;;
68457;SDS011;65384;52.016;5.428;2022-12-16T14:46:39;31.65;;;13.60;;
68457;SDS011;65384;52.016;5.428;2022-12-16T14:49:27;30.98;;;12.60;;
68457;SDS011;65384;52.016;5.428;2022-12-16T14:52:19;31.08;;;13.13;;
68457;SDS011;65384;52.016;5.428;2022-12-16T14:55:17;27.83;;;12.50;;
68457;SDS011;65384;52.016;5.428;2022-12-16T14:58:04;31.85;;;13.73;;
68457;SDS011;65384;52.016;5.428;2022-12-16T15:00:53;30.98;;;12.98;;
68457;SDS011;65384;52.016;5.428;2022-12-16T15:03:38;29.33;;;13.55;;
68457;SDS011;65384;52.016;5.428;2022-12-16T15:09:17;33.53;;;14.15;;
68457;SDS011;65384;52.016;5.428;2022-12-16T15:12:05;30.42;;;13.27;;
68457;SDS011;65384;52.016;5.428;2022-12-16T15:14:51;33.65;;;14.13;;
68457;SDS011;65384;52.016;5.428;2022-12-16T15:17:50;35.70;;;14.25;;
68457;SDS011;65384;52.016;5.428;2022-12-16T15:20:36;33.22;;;14.25;;
68457;SDS011;65384;52.016;5.428;2022-12-16T15:23:25;35.70;;;14.32;;
68457;SDS011;65384;52.016;5.428;2022-12-16T15:26:17;35.03;;;13.98;;
68457;SDS011;65384;52.016;5.428;2022-12-16T15:29:23;34.10;;;13.98;;
68457;SDS011;65384;52.016;5.428;2022-12-16T15:41:03;31.10;;;13.07;;
68457;SDS011;65384;52.016;5.428;2022-12-16T15:43:48;31.38;;;13.50;;
68457;SDS011;65384;52.016;5.428;2022-12-16T15:46:32;33.45;;;14.00;;
68457;SDS011;65384;52.016;5.428;2022-12-16T15:55:22;34.72;;;14.98;;
68457;SDS011;65384;52.016;5.428;2022-12-16T15:58:24;39.92;;;16.40;;
68457;SDS011;65384;52.016;5.428;2022-12-16T16:01:10;34.25;;;14.00;;
68457;SDS011;65384;52.016;5.428;2022-12-16T16:03:55;32.97;;;13.98;;
68457;SDS011;65384;52.016;5.428;2022-12-16T16:06:40;37.38;;;14.80;;
68457;SDS011;65384;52.016;5.428;2022-12-16T16:09:29;30.77;;;13.10;;
68457;SDS011;65384;52.016;5.428;2022-12-16T16:12:15;36.88;;;14.57;;
68457;SDS011;65384;52.016;5.428;2022-12-16T16:15:00;32.08;;;13.75;;
68457;SDS011;65384;52.016;5.428;2022-12-16T16:17:49;35.78;;;14.70;;
68457;SDS011;65384;52.016;5.428;2022-12-16T16:20:37;32.47;;;13.77;;
68457;SDS011;65384;52.016;5.428;2022-12-16T16:23:21;38.03;;;14.52;;
68457;SDS011;65384;52.016;5.428;2022-12-16T16:26:05;31.25;;;13.43;;
68457;SDS011;65384;52.016;5.428;2022-12-16T16:28:49;32.33;;;14.15;;
68457;SDS011;65384;52.016;5.428;2022-12-16T16:31:33;37.47;;;14.93;;
68457;SDS011;65384;52.016;5.428;2022-12-16T16:34:17;35.30;;;15.07;;
68457;SDS011;65384;52.016;5.428;2022-12-16T16:37:01;36.38;;;15.10;;
68457;SDS011;65384;52.016;5.428;2022-12-16T16:39:59;37.50;;;14.88;;
68457;SDS011;65384;52.016;5.428;2022-12-16T16:42:43;32.22;;;13.98;;
68457;SDS011;65384;52.016;5.428;2022-12-16T16:45:27;41.00;;;17.67;;
68457;SDS011;65384;52.016;5.428;2022-12-16T16:48:12;40.25;;;16.08;;
68457;SDS011;65384;52.016;5.428;2022-12-16T16:50:59;43.13;;;17.80;;
68457;SDS011;65384;52.016;5.428;2022-12-16T16:53:44;47.55;;;17.92;;
68457;SDS011;65384;52.016;5.428;2022-12-16T16:56:30;45.83;;;17.05;;
68457;SDS011;65384;52.016;5.428;2022-12-16T16:59:15;43.85;;;16.70;;
68457;SDS011;65384;52.016;5.428;2022-12-16T17:01:59;45.38;;;18.38;;
68457;SDS011;65384;52.016;5.428;2022-12-16T17:04:43;39.55;;;15.93;;
68457;SDS011;65384;52.016;5.428;2022-12-16T17:07:27;48.88;;;18.52;;
68457;SDS011;65384;52.016;5.428;2022-12-16T17:10:11;44.13;;;17.15;;
68457;SDS011;65384;52.016;5.428;2022-12-16T17:13:12;40.15;;;16.05;;
68457;SDS011;65384;52.016;5.428;2022-12-16T17:15:56;38.15;;;15.38;;
68457;SDS011;65384;52.016;5.428;2022-12-16T17:18:39;38.38;;;16.02;;
68457;SDS011;65384;52.016;5.428;2022-12-16T17:21:23;40.65;;;16.02;;
68457;SDS011;65384;52.016;5.428;2022-12-16T17:24:07;46.40;;;17.38;;
68457;SDS011;65384;52.016;5.428;2022-12-16T17:26:51;44.00;;;17.25;;
68457;SDS011;65384;52.016;5.428;2022-12-16T17:29:35;43.50;;;17.88;;
68457;SDS011;65384;52.016;5.428;2022-12-16T17:32:19;44.90;;;18.08;;
68457;SDS011;65384;52.016;5.428;2022-12-16T17:35:03;42.42;;;16.75;;
68457;SDS011;65384;52.016;5.428;2022-12-16T17:37:48;44.35;;;17.10;;
68457;SDS011;65384;52.016;5.428;2022-12-16T17:40:32;44.28;;;16.80;;
68457;SDS011;65384;52.016;5.428;2022-12-16T17:43:16;43.85;;;16.40;;
68457;SDS011;65384;52.016;5.428;2022-12-16T17:46:01;41.10;;;15.50;;
68457;SDS011;65384;52.016;5.428;2022-12-16T17:48:50;41.55;;;16.15;;
68457;SDS011;65384;52.016;5.428;2022-12-16T17:51:34;41.40;;;15.75;;
68457;SDS011;65384;52.016;5.428;2022-12-16T17:54:18;39.13;;;15.40;;
68457;SDS011;65384;52.016;5.428;2022-12-16T17:57:02;42.45;;;16.67;;
68457;SDS011;65384;52.016;5.428;2022-12-16T17:59:46;42.55;;;15.98;;
68457;SDS011;65384;52.016;5.428;2022-12-16T18:02:30;48.03;;;18.25;;
68457;SDS011;65384;52.016;5.428;2022-12-16T18:05:14;44.92;;;16.23;;
68457;SDS011;65384;52.016;5.428;2022-12-16T18:07:58;44.17;;;15.68;;
68457;SDS011;65384;52.016;5.428;2022-12-16T18:10:41;46.03;;;17.55;;
68457;SDS011;65384;52.016;5.428;2022-12-16T18:13:25;45.47;;;15.93;;
68457;SDS011;65384;52.016;5.428;2022-12-16T18:16:09;44.67;;;16.58;;
68457;SDS011;65384;52.016;5.428;2022-12-16T18:19:04;47.47;;;18.00;;
68457;SDS011;65384;52.016;5.428;2022-12-16T18:21:48;42.45;;;16.70;;